Time;durP1;ratioP1;P1;durP2;ratioP2;P2;SDS_P1;SDS_P2;PMS_P1;PMS_P2;Temp;Humidity;BMP_temperature;BMP_pressure;BME280_temperature;BME280_humidity;BME280_pressure;Samples;Min_cycle;Max_cycle;Signal;HPM_P1;HPM_P2
2022/03/19 00:00:39;;;;;;;1999.90;999.90;;;;;;;2.62;63.31;163097.09;4964663;28;20484;-67
2022/03/19 00:03:06;;;;;;;1999.90;999.90;;;;;;;2.58;63.89;163086.16;4961759;28;20061;-67
2022/03/19 00:05:33;;;;;;;1999.90;999.90;;;;;;;2.52;64.51;163068.38;4966435;28;20061;-67
2022/03/19 00:08:01;;;;;;;1999.90;999.90;;;;;;;2.51;64.97;163065.59;4966485;28;20082;-67
2022/03/19 00:10:28;;;;;;;1999.90;999.90;;;;;;;2.50;63.94;163064.25;4969240;28;20378;-67
2022/03/19 00:12:54;;;;;;;1999.90;999.90;;;;;;;2.31;64.05;163013.56;4966562;28;20122;-67
2022/03/19 00:15:21;;;;;;;1999.90;999.90;;;;;;;2.29;63.05;163009.47;4966560;28;20456;-67
2022/03/19 00:17:47;;;;;;;1999.90;999.90;;;;;;;2.27;63.76;163002.59;4965079;28;20051;-67
2022/03/19 00:20:14;;;;;;;1999.90;999.90;;;;;;;2.41;63.24;163039.56;4964457;28;20403;-67
2022/03/19 00:22:41;;;;;;;1999.90;999.90;;;;;;;2.13;62.23;162965.66;4947872;28;20063;-67
2022/03/19 00:25:11;;;;;;;1999.90;999.90;;;;;;;2.23;62.49;162993.03;4964433;28;20047;-69
2022/03/19 00:27:40;;;;;;;1999.90;999.90;;;;;;;2.13;62.86;162964.25;4967492;28;20051;-69
2022/03/19 00:30:08;;;;;;;1999.90;999.90;;;;;;;2.17;61.81;162975.22;4966939;28;20192;-69
2022/03/19 00:32:35;;;;;;;1999.90;999.90;;;;;;;2.29;61.99;163008.06;4967059;28;20090;-66
2022/03/19 00:35:03;;;;;;;1999.90;999.90;;;;;;;2.16;62.96;162973.88;4964820;28;20503;-66
2022/03/19 00:37:32;;;;;;;1999.90;999.90;;;;;;;2.05;63.51;162945.06;4966002;28;20379;-66
2022/03/19 00:39:58;;;;;;;1999.90;999.90;;;;;;;2.24;63.45;162995.75;4962719;28;20483;-66
2022/03/19 00:42:25;;;;;;;1999.90;999.90;;;;;;;2.41;61.90;163040.97;4965142;28;20392;-66
2022/03/19 00:44:51;;;;;;;1999.90;999.90;;;;;;;2.49;61.38;163060.09;4969412;28;20058;-66
2022/03/19 00:47:18;;;;;;;1999.90;999.90;;;;;;;2.38;62.12;163032.75;4969271;28;20115;-66
2022/03/19 00:49:44;;;;;;;1999.90;999.90;;;;;;;2.32;62.78;163016.28;4970206;28;20082;-67
2022/03/19 00:52:11;;;;;;;1999.90;999.90;;;;;;;2.13;63.82;162965.66;4969140;28;20050;-67
2022/03/19 00:54:37;;;;;;;1999.90;999.90;;;;;;;2.02;64.75;162936.84;4961802;28;20062;-69
2022/03/19 00:57:04;;;;;;;1999.90;999.90;;;;;;;1.90;64.46;162904.00;4969630;28;20050;-67
2022/03/19 00:59:30;;;;;;;1999.90;999.90;;;;;;;1.75;64.91;162865.66;4968899;28;20050;-67
2022/03/19 01:01:57;;;;;;;1999.90;999.90;;;;;;;1.08;66.89;162686.41;4969688;28;20113;-67
2022/03/19 01:04:23;;;;;;;1999.90;999.90;;;;;;;1.51;66.93;162800.00;4969505;28;20106;-67
2022/03/19 01:06:50;;;;;;;1999.90;999.90;;;;;;;1.78;65.79;162872.53;4968460;28;20378;-66
2022/03/19 01:09:16;;;;;;;1999.90;999.90;;;;;;;1.52;64.49;162804.09;4960269;28;20140;-66
2022/03/19 01:11:43;;;;;;;1999.90;999.90;;;;;;;1.51;65.79;162801.34;4969296;28;20105;-66
2022/03/19 01:14:09;;;;;;;1999.90;999.90;;;;;;;1.84;65.52;162887.59;4968700;28;20093;-67
2022/03/19 01:16:36;;;;;;;1999.90;999.90;;;;;;;1.95;64.10;162917.72;4966338;28;20427;-67
2022/03/19 01:19:03;;;;;;;1999.90;999.90;;;;;;;1.97;64.73;162923.19;4968457;28;20425;-67
2022/03/19 01:21:29;;;;;;;1999.90;999.90;;;;;;;2.03;64.28;162939.59;4968850;28;20365;-67
2022/03/19 01:23:55;;;;;;;1999.90;999.90;;;;;;;2.03;63.76;162938.25;4969700;28;20058;-66
2022/03/19 01:26:24;;;;;;;1999.90;999.90;;;;;;;1.70;65.74;162850.66;4966252;28;20093;-67
2022/03/19 01:28:50;;;;;;;1999.90;999.90;;;;;;;1.84;65.27;162887.59;4955612;28;20106;-66
2022/03/19 01:31:17;;;;;;;1999.90;999.90;;;;;;;1.66;66.25;162841.03;4979845;28;20050;-66
2022/03/19 01:33:43;;;;;;;1999.90;999.90;;;;;;;1.57;66.35;162817.75;4962988;28;20051;-66
2022/03/19 01:36:10;;;;;;;1999.90;999.90;;;;;;;1.33;68.01;162753.44;4962785;28;20059;-66
2022/03/19 01:38:37;;;;;;;1999.90;999.90;;;;;;;1.30;67.81;162745.25;4968423;28;20106;-67
2022/03/19 01:41:05;;;;;;;1999.90;999.90;;;;;;;1.36;69.05;162761.66;4968236;28;20042;-67
2022/03/19 01:43:31;;;;;;;1999.90;999.90;;;;;;;1.65;68.02;162838.28;4967889;28;20452;-67
2022/03/19 01:45:59;;;;;;;1999.90;999.90;;;;;;;1.71;68.23;162854.75;4968920;28;20093;-67
2022/03/19 01:48:26;;;;;;;1999.90;999.90;;;;;;;1.76;67.77;162868.41;4969401;28;20047;-67
2022/03/19 01:50:52;;;;;;;1999.90;999.90;;;;;;;0.90;69.47;162637.16;4966573;28;20488;-67
2022/03/19 01:53:19;;;;;;;1999.90;999.90;;;;;;;0.76;70.35;162600.19;4969221;28;20078;-66
2022/03/19 01:55:45;;;;;;;1999.90;999.90;;;;;;;0.63;71.58;162567.38;4968418;28;20464;-66
2022/03/19 01:58:12;;;;;;;1999.90;999.90;;;;;;;0.99;70.57;162661.78;4955654;28;20086;-66
2022/03/19 02:00:39;;;;;;;1999.90;999.90;;;;;;;1.32;69.48;162750.69;4955411;28;20305;-66
2022/03/19 02:03:07;;;;;;;1999.90;999.90;;;;;;;1.42;69.61;162775.38;4967213;28;20148;-66
2022/03/19 02:05:34;;;;;;;1999.90;999.90;;;;;;;1.54;69.29;162808.19;4972896;28;20078;-67
2022/03/19 02:08:00;;;;;;;1999.90;999.90;;;;;;;1.48;69.76;162791.78;4972455;28;20352;-67
2022/03/19 02:10:27;;;;;;;1999.90;999.90;;;;;;;1.54;70.33;162808.19;4987022;28;20059;-67
2022/03/19 02:12:55;;;;;;;1999.90;999.90;;;;;;;1.45;69.63;162784.94;4968986;28;20440;-67
2022/03/19 02:15:23;;;;;;;1999.90;999.90;;;;;;;1.43;70.02;162778.06;4968260;28;20058;-67
2022/03/19 02:17:49;;;;;;;1999.90;999.90;;;;;;;1.58;69.65;162820.50;4969092;28;20164;-68
2022/03/19 02:20:16;;;;;;;1999.90;999.90;;;;;;;1.54;69.58;162808.19;4963700;28;20125;-68
2022/03/19 02:25:34;;;;;;;1999.90;999.90;;;;;;;1.38;69.79;162765.75;4969237;28;20094;-68
2022/03/19 02:25:35;;;;;;;1999.90;999.90;;;;;;;1.29;70.03;162742.50;4963968;28;20352;-68
2022/03/19 02:28:02;;;;;;;1999.90;999.90;;;;;;;1.35;70.17;162757.56;4961790;28;20061;-68
2022/03/19 02:30:30;;;;;;;1999.90;999.90;;;;;;;1.17;70.31;162709.66;4967318;28;20086;-68
2022/03/19 02:32:57;;;;;;;1999.90;999.90;;;;;;;0.87;70.99;162630.31;4961340;28;20138;-68
2022/03/19 02:35:24;;;;;;;1999.90;999.90;;;;;;;0.78;72.13;162605.69;4958472;28;20090;-68
2022/03/19 02:37:50;;;;;;;1999.90;999.90;;;;;;;1.00;71.78;162664.53;4966978;28;20046;-68
2022/03/19 02:40:19;;;;;;;1999.90;999.90;;;;;;;1.07;71.49;162682.28;4968352;28;20055;-68
2022/03/19 02:42:47;;;;;;;1999.90;999.90;;;;;;;0.89;72.22;162635.78;4966648;28;20140;-68
2022/03/19 02:45:14;;;;;;;1999.90;999.90;;;;;;;1.14;71.54;162701.47;4958775;28;20057;-68
2022/03/19 02:47:59;;;;;;;1999.90;999.90;;;;;;;1.11;71.22;162693.25;4967987;28;20443;-68
2022/03/19 02:50:30;;;;;;;1999.90;999.90;;;;;;;1.07;71.07;162682.28;4966168;28;20448;-68
2022/03/19 02:52:58;;;;;;;1999.90;999.90;;;;;;;0.70;71.37;162586.53;4965093;28;20329;-68
2022/03/19 02:55:30;;;;;;;1999.90;999.90;;;;;;;0.64;71.88;162570.13;4957772;28;20094;-68
2022/03/19 02:57:56;;;;;;;1999.90;999.90;;;;;;;0.87;71.87;162630.31;4964794;28;20078;-68
2022/03/19 03:00:23;;;;;;;1999.90;999.90;;;;;;;0.93;71.49;162645.38;4960658;28;20078;-68
2022/03/19 03:02:49;;;;;;;1999.90;999.90;;;;;;;0.98;71.48;162660.44;4966228;28;20479;-68
2022/03/19 03:05:16;;;;;;;1999.90;999.90;;;;;;;0.99;71.66;162663.13;4970846;28;20073;-69
2022/03/19 03:07:42;;;;;;;1999.90;999.90;;;;;;;1.07;71.30;162682.28;4959728;28;20098;-68
2022/03/19 03:10:09;;;;;;;1999.90;999.90;;;;;;;1.01;71.39;162668.63;4964071;28;20118;-67
2022/03/19 03:12:36;;;;;;;1999.90;999.90;;;;;;;1.06;70.88;162680.94;4967147;28;20068;-67
2022/03/19 03:15:03;;;;;;;1999.90;999.90;;;;;;;1.22;70.69;162723.31;4967871;28;20112;-69
2022/03/19 03:17:30;;;;;;;1999.90;999.90;;;;;;;1.23;70.87;162727.44;4966079;28;20055;-67
2022/03/19 03:19:56;;;;;;;1999.90;999.90;;;;;;;1.19;70.89;162715.13;4966758;28;20133;-67
2022/03/19 03:22:23;;;;;;;1999.90;999.90;;;;;;;1.23;71.29;162727.44;4965774;28;20078;-66
2022/03/19 03:24:49;;;;;;;1999.90;999.90;;;;;;;1.34;69.72;162756.22;4953304;28;20090;-67
2022/03/19 03:27:16;;;;;;;1999.90;999.90;;;;;;;1.17;70.58;162711.03;4963123;28;20050;-67
2022/03/19 03:29:42;;;;;;;1999.90;999.90;;;;;;;1.09;71.35;162689.16;4959893;28;20051;-67
2022/03/19 03:32:09;;;;;;;1999.90;999.90;;;;;;;1.03;70.79;162674.09;4965455;28;20402;-67
2022/03/19 03:34:37;;;;;;;1999.90;999.90;;;;;;;0.98;71.58;162660.44;4965589;28;20388;-67
2022/03/19 03:37:04;;;;;;;1999.90;999.90;;;;;;;0.43;72.47;162512.66;4966046;28;20500;-67
2022/03/19 03:39:31;;;;;;;1999.90;999.90;;;;;;;-0.18;74.26;162351.31;4960481;28;20082;-67
2022/03/19 03:41:57;;;;;;;1999.90;999.90;;;;;;;-0.27;74.55;162328.13;4966358;28;20055;-67
2022/03/19 03:44:24;;;;;;;1999.90;999.90;;;;;;;0.14;73.83;162436.13;4961729;28;20074;-67
2022/03/19 03:46:50;;;;;;;1999.90;999.90;;;;;;;0.46;73.33;162522.28;4966176;28;20088;-69
2022/03/19 03:49:17;;;;;;;1999.90;999.90;;;;;;;0.62;72.05;162564.63;4960406;28;20051;-67
2022/03/19 03:51:44;;;;;;;1999.90;999.90;;;;;;;0.66;71.62;162575.59;4961973;28;20109;-67
2022/03/19 03:54:10;;;;;;;1999.90;999.90;;;;;;;0.75;71.35;162598.84;4993477;28;20055;-67
2022/03/19 03:56:37;;;;;;;1999.90;999.90;;;;;;;0.67;72.00;162578.34;4964939;28;20377;-67
2022/03/19 03:59:04;;;;;;;1999.90;999.90;;;;;;;0.25;73.78;162464.81;4966335;28;20141;-67
2022/03/19 04:01:30;;;;;;;1999.90;999.90;;;;;;;0.15;74.17;162438.88;4961881;28;20113;-67
2022/03/19 04:03:57;;;;;;;1999.90;999.90;;;;;;;-0.05;74.07;162385.53;4955347;28;20055;-67
2022/03/19 04:06:23;;;;;;;1999.90;999.90;;;;;;;-0.37;75.36;162302.16;4957446;28;20059;-67
2022/03/19 04:08:50;;;;;;;1999.90;999.90;;;;;;;-0.03;75.07;162390.97;4964525;28;20070;-67
2022/03/19 04:11:16;;;;;;;1999.90;999.90;;;;;;;0.31;74.11;162482.63;4964796;28;20091;-67
2022/03/19 04:13:43;;;;;;;1999.90;999.90;;;;;;;0.49;73.34;162530.47;4954389;28;20414;-67
2022/03/19 04:16:09;;;;;;;1999.90;999.90;;;;;;;0.51;73.05;162534.59;4950528;28;20055;-67
2022/03/19 04:18:36;;;;;;;1999.90;999.90;;;;;;;0.46;73.15;162522.28;4965509;28;20062;-67
2022/03/19 04:21:03;;;;;;;1999.90;999.90;;;;;;;0.38;73.47;162499.03;4970269;28;20100;-67
2022/03/19 04:23:29;;;;;;;1999.90;999.90;;;;;;;0.33;71.53;162488.06;4963419;28;20090;-67
2022/03/19 04:25:56;;;;;;;1999.90;999.90;;;;;;;0.11;72.83;162429.25;4965279;28;20059;-67
2022/03/19 04:28:22;;;;;;;1999.90;999.90;;;;;;;0.05;73.27;162412.88;4964443;28;20082;-67
2022/03/19 04:30:49;;;;;;;1999.90;999.90;;;;;;;0.12;72.99;162432.00;4956491;28;20074;-67
2022/03/19 04:33:20;;;;;;;1999.90;999.90;;;;;;;-0.33;74.47;162310.34;4972727;28;20114;-67
2022/03/19 04:38:31;;;;;;;1999.90;999.90;;;;;;;-0.38;73.65;162299.38;4965783;28;20306;-68
2022/03/19 04:40:59;;;;;;;1999.90;999.90;;;;;;;-0.29;72.94;162322.63;4965932;28;20058;-68
2022/03/19 04:43:26;;;;;;;1999.90;999.90;;;;;;;-0.81;74.69;162184.59;4963279;28;20051;-68
2022/03/19 04:45:52;;;;;;;1999.90;999.90;;;;;;;-0.47;74.40;162274.81;4960799;28;20055;-68
2022/03/19 04:48:19;;;;;;;1999.90;999.90;;;;;;;-0.16;73.13;162356.81;4952848;28;20049;-68
2022/03/19 04:50:46;;;;;;;1999.90;999.90;;;;;;;-0.09;72.96;162374.56;4958843;28;20058;-68
2022/03/19 04:53:13;;;;;;;1999.90;999.90;;;;;;;-0.03;72.62;162390.97;4958454;28;20069;-68
2022/03/19 04:55:40;;;;;;;1999.90;999.90;;;;;;;0.14;71.95;162436.13;4952509;28;20150;-68
2022/03/19 04:58:07;;;;;;;1999.90;999.90;;;;;;;0.27;71.97;162471.66;4965465;28;20094;-68
2022/03/19 05:00:35;;;;;;;1999.90;999.90;;;;;;;0.22;72.48;162457.97;4965220;28;20495;-68
2022/03/19 05:03:04;;;;;;;1999.90;999.90;;;;;;;0.31;71.72;162482.63;4966881;28;20456;-68
2022/03/19 05:05:31;;;;;;;1999.90;999.90;;;;;;;0.44;70.80;162515.41;4964960;28;20050;-68
2022/03/19 05:07:58;;;;;;;1999.90;999.90;;;;;;;0.43;71.47;162514.06;4965553;28;20093;-69
2022/03/19 05:13:10;;;;;;;1999.90;999.90;;;;;;;0.11;71.56;162429.25;4966059;28;20121;-68
2022/03/19 05:15:37;;;;;;;1999.90;999.90;;;;;;;0.02;71.55;162404.66;4963270;28;20050;-68
2022/03/19 05:18:04;;;;;;;1999.90;999.90;;;;;;;-0.27;73.18;162326.72;4962353;28;20452;-68
2022/03/19 05:20:33;;;;;;;1999.90;999.90;;;;;;;-0.40;74.62;162293.94;4964984;28;20061;-68
2022/03/19 05:23:00;;;;;;;1999.90;999.90;;;;;;;-0.62;75.01;162235.19;4965430;28;20051;-68
2022/03/19 05:25:27;;;;;;;1999.90;999.90;;;;;;;-1.31;76.39;162052.13;4963315;28;20149;-68
2022/03/19 05:27:53;;;;;;;1999.90;999.90;;;;;;;-1.80;80.16;161921.06;4969233;28;20054;-68
2022/03/19 05:30:20;;;;;;;1999.90;999.90;;;;;;;-0.97;77.34;162142.28;4968203;28;20090;-68
2022/03/19 05:32:47;;;;;;;1999.90;999.90;;;;;;;-0.43;74.57;162285.75;4968661;28;20223;-68
2022/03/19 05:35:15;;;;;;;1999.90;999.90;;;;;;;-0.03;72.97;162390.97;4969202;28;20051;-68
2022/03/19 05:37:42;;;;;;;1999.90;999.90;;;;;;;0.16;72.83;162441.56;4964430;28;20058;-68
2022/03/19 05:40:09;;;;;;;1999.90;999.90;;;;;;;0.30;72.60;162478.53;4968692;28;20090;-68
2022/03/19 05:42:36;;;;;;;1999.90;999.90;;;;;;;0.40;72.39;162505.81;4993654;28;20102;-68
2022/03/19 05:45:03;;;;;;;1999.90;999.90;;;;;;;0.60;72.00;162557.84;4966805;28;20050;-68
2022/03/19 05:47:30;;;;;;;1999.90;999.90;;;;;;;0.44;72.25;162515.41;4965394;28;20086;-68
2022/03/19 05:49:56;;;;;;;1999.90;999.90;;;;;;;0.64;71.66;162570.13;4954975;28;20090;-68
2022/03/19 05:52:23;;;;;;;1999.90;999.90;;;;;;;0.76;71.23;162600.19;4968080;28;20082;-68
2022/03/19 05:54:49;;;;;;;1999.90;999.90;;;;;;;0.74;69.92;162594.75;4955063;28;20082;-68
2022/03/19 05:57:16;;;;;;;1999.90;999.90;;;;;;;0.98;70.49;162659.03;4969048;28;20047;-68
2022/03/19 05:59:42;;;;;;;1999.90;999.90;;;;;;;0.89;66.65;162635.78;4971515;28;20137;-68
2022/03/19 06:02:09;;;;;;;1999.90;999.90;;;;;;;0.59;65.40;162556.44;4959013;28;20109;-67
2022/03/19 06:04:36;;;;;;;1999.90;999.90;;;;;;;0.90;65.23;162637.16;4968803;28;20103;-67
2022/03/19 06:07:03;;;;;;;1999.90;999.90;;;;;;;1.00;63.96;162665.88;4961894;28;20346;-67
2022/03/19 06:09:29;;;;;;;1999.90;999.90;;;;;;;1.09;63.84;162689.16;4964249;28;20327;-67
2022/03/19 06:11:56;;;;;;;1999.90;999.90;;;;;;;1.05;63.76;162679.53;4972455;28;20059;-68
2022/03/19 06:14:23;;;;;;;1999.90;999.90;;;;;;;0.34;63.68;162489.41;4972905;28;20093;-68
2022/03/19 06:16:49;;;;;;;1999.90;999.90;;;;;;;-0.20;65.14;162345.88;4968420;28;20347;-68
2022/03/19 06:19:17;;;;;;;1999.90;999.90;;;;;;;-0.05;65.48;162386.88;4968124;28;20083;-68
2022/03/19 06:21:44;;;;;;;1999.90;999.90;;;;;;;0.30;64.44;162478.53;4976815;28;20086;-68
2022/03/19 06:24:15;;;;;;;;;;;;;;;0.69;62.52;162583.78;4968110;28;20129;-68
2022/03/19 06:26:41;;;;;;;1999.90;999.90;;;;;;;0.81;62.12;162615.25;4962041;28;20331;-69
2022/03/19 06:29:08;;;;;;;1999.90;999.90;;;;;;;0.85;60.34;162624.88;4967836;28;20098;-69
2022/03/19 06:31:35;;;;;;;1999.90;999.90;;;;;;;0.68;60.60;162581.03;4967748;28;20058;-68
2022/03/19 06:34:02;;;;;;;1999.90;999.90;;;;;;;1.02;60.65;162671.34;4967575;28;20448;-68
2022/03/19 06:39:14;;;;;;;1999.90;999.90;;;;;;;0.46;59.15;162520.88;4962069;28;20167;-68
2022/03/19 06:41:41;;;;;;;1999.90;999.90;;;;;;;0.48;60.09;162526.38;4974610;28;20081;-69
2022/03/19 06:44:08;;;;;;;1999.90;999.90;;;;;;;0.67;60.85;162578.34;4986829;28;20427;-67
2022/03/19 06:46:34;;;;;;;1999.90;999.90;;;;;;;0.34;61.70;162490.81;4987192;28;20101;-69
2022/03/19 06:49:01;;;;;;;1999.90;999.90;;;;;;;0.95;61.35;162652.19;4987467;28;20081;-69
2022/03/19 06:51:29;;;;;;;1999.90;999.90;;;;;;;0.90;60.17;162638.53;4986747;28;20060;-69
2022/03/19 06:53:55;;;;;;;1999.90;999.90;;;;;;;1.15;60.80;162704.22;4973163;28;20136;-69
2022/03/19 06:56:22;;;;;;;1999.90;999.90;;;;;;;1.03;61.15;162672.75;4985926;28;20046;-66
2022/03/19 06:58:54;;;;;;;1999.90;999.90;;;;;;;1.44;59.06;162780.81;4987744;28;20047;-67
2022/03/19 07:01:21;;;;;;;1999.90;999.90;;;;;;;1.10;59.94;162690.50;4977427;28;20100;-67
2022/03/19 07:03:47;;;;;;;1999.90;999.90;;;;;;;0.91;60.42;162639.88;4983971;28;20082;-67
2022/03/19 07:06:16;;;;;;;1999.90;999.90;;;;;;;1.21;60.20;162720.63;4974651;28;20105;-67
2022/03/19 07:09:04;;;;;;;1999.90;999.90;;;;;;;0.68;60.84;162581.03;4977126;28;20054;-67
2022/03/19 07:11:31;;;;;;;1999.90;999.90;;;;;;;1.01;60.92;162667.25;4986546;28;20416;-67
2022/03/19 07:13:58;;;;;;;1999.90;999.90;;;;;;;0.84;58.79;162622.09;4991438;28;20050;-67
2022/03/19 07:16:24;;;;;;;1999.90;999.90;;;;;;;0.93;58.74;162646.72;4986484;28;20380;-67
2022/03/19 07:18:51;;;;;;;1999.90;999.90;;;;;;;1.10;58.49;162691.84;4985701;28;20055;-67
2022/03/19 07:21:18;;;;;;;1999.90;999.90;;;;;;;1.17;58.26;162709.66;4980270;28;20052;-66
2022/03/19 07:23:50;;;;;;;1999.90;999.90;;;;;;;1.41;57.87;162773.97;4982990;28;20043;-67
2022/03/19 07:26:16;;;;;;;1999.90;999.90;;;;;;;1.38;59.26;162765.75;4967710;28;20050;-66
2022/03/19 07:28:43;;;;;;;1999.90;999.90;;;;;;;1.31;58.71;162748.00;4983398;28;20468;-66
2022/03/19 07:31:09;;;;;;;1999.90;999.90;;;;;;;2.04;57.38;162940.97;4974585;28;20059;-66
2022/03/19 07:33:36;;;;;;;1999.90;999.90;;;;;;;1.73;57.94;162858.88;4973428;28;20137;-66
2022/03/19 07:36:06;;;;;;;1999.90;999.90;;;;;;;2.13;57.76;162964.25;4976911;28;20206;-66
2022/03/19 07:38:32;;;;;;;1999.90;999.90;;;;;;;1.50;54.41;162797.25;4986087;28;20443;-66
2022/03/19 07:43:44;;;;;;;1999.90;999.90;;;;;;;1.80;56.61;162876.63;4983982;28;20054;-66
2022/03/19 07:46:11;;;;;;;1999.90;999.90;;;;;;;1.49;57.43;162794.50;4986432;28;20046;-66
2022/03/19 07:48:38;;;;;;;1999.90;999.90;;;;;;;2.44;56.13;163049.19;4984718;28;20073;-66
2022/03/19 07:51:05;;;;;;;1999.90;999.90;;;;;;;1.88;55.48;162899.91;4975784;28;20102;-66
2022/03/19 07:53:32;;;;;;;1999.90;999.90;;;;;;;1.83;55.68;162884.84;4985354;28;20085;-66
2022/03/19 07:55:58;;;;;;;1999.90;999.90;;;;;;;2.24;55.11;162994.38;4985679;28;20057;-66
2022/03/19 07:58:25;;;;;;;1999.90;999.90;;;;;;;2.89;53.79;163168.34;4989347;28;20116;-66
2022/03/19 08:00:51;;;;;;;1999.90;999.90;;;;;;;3.41;52.65;163305.34;4984344;28;20634;-66
2022/03/19 08:03:19;;;;;;;1999.90;999.90;;;;;;;3.37;52.95;163294.41;4977925;28;20047;-67
2022/03/19 08:05:46;;;;;;;1999.90;999.90;;;;;;;3.24;52.10;163260.16;4972611;28;20129;-66
2022/03/19 08:08:14;;;;;;;1999.90;999.90;;;;;;;2.74;51.94;163128.63;4978454;28;20054;-66
2022/03/19 08:10:40;;;;;;;1999.90;999.90;;;;;;;3.42;52.06;163308.09;4985053;28;20097;-66
2022/03/19 08:13:08;;;;;;;1999.90;999.90;;;;;;;3.44;51.21;163313.56;4985408;28;20386;-67
2022/03/19 08:15:39;;;;;;;1999.90;999.90;;;;;;;3.82;50.01;163416.38;4986870;28;20058;-67
2022/03/19 08:18:06;;;;;;;1999.90;999.90;;;;;;;4.68;48.50;163645.41;4984175;28;20050;-67
2022/03/19 08:20:33;;;;;;;1999.90;999.90;;;;;;;4.35;47.22;163556.28;4984091;28;20323;-66
2022/03/19 08:22:59;;;;;;;1999.90;999.90;;;;;;;4.64;44.04;163633.06;4984689;28;20090;-66
2022/03/19 08:25:26;;;;;;;1999.90;999.90;;;;;;;4.30;44.40;163543.94;4984243;28;20513;-66
2022/03/19 08:27:54;;;;;;;1999.90;999.90;;;;;;;3.89;46.42;163434.22;4984308;28;20383;-67
2022/03/19 08:30:21;;;;;;;1999.90;999.90;;;;;;;3.93;44.39;163443.81;4974962;28;20051;-66
2022/03/19 08:32:47;;;;;;;1999.90;999.90;;;;;;;4.80;43.93;163676.97;4985123;28;20113;-67
2022/03/19 08:35:14;;;;;;;1999.90;999.90;;;;;;;4.51;41.73;163598.75;4978085;28;20046;-66
2022/03/19 08:37:45;;;;;;;1999.90;999.90;;;;;;;4.59;42.40;163620.72;4976505;28;20058;-66
2022/03/19 08:40:18;;;;;;;1999.90;999.90;;;;;;;5.03;42.25;163737.31;4981138;28;20351;-66
2022/03/19 08:42:51;;;;;;;1999.90;999.90;;;;;;;4.43;40.96;163578.19;4970339;28;20061;-67
2022/03/19 08:45:19;;;;;;;1999.90;999.90;;;;;;;4.78;41.02;163671.50;4976656;28;20416;-66
2022/03/19 08:47:46;;;;;;;1999.90;999.90;;;;;;;5.02;41.10;163735.97;4980109;28;20062;-66
2022/03/19 08:50:13;;;;;;;1999.90;999.90;;;;;;;5.20;38.84;163782.63;4983294;28;20552;-67
2022/03/19 08:52:40;;;;;;;1999.90;999.90;;;;;;;5.19;38.50;163781.22;4983170;28;20101;-67
2022/03/19 08:55:07;;;;;;;1999.90;999.90;;;;;;;5.08;37.32;163752.41;4978949;28;20106;-68
2022/03/19 08:57:33;;;;;;;1999.90;999.90;;;;;;;5.60;36.82;163891.03;4974151;28;20050;-67
2022/03/19 09:00:01;;;;;;;1999.90;999.90;;;;;;;5.30;37.83;163810.06;4984208;28;20077;-67
2022/03/19 09:02:39;;;;;;;1999.90;999.90;;;;;;;6.11;35.07;164025.63;4989274;28;20061;-68
2022/03/19 09:05:07;;;;;;;1999.90;999.90;;;;;;;6.35;35.65;164090.16;4984971;28;20053;-67
2022/03/19 09:07:33;;;;;;;1999.90;999.90;;;;;;;5.87;36.00;163962.41;4985038;28;20178;-67
2022/03/19 09:10:00;;;;;;;1999.90;999.90;;;;;;;6.73;36.92;164190.41;4988991;28;20458;-68
2022/03/19 09:12:33;;;;;;;1999.90;999.90;;;;;;;7.73;35.20;164459.78;4984764;28;20626;-68
2022/03/19 09:14:59;;;;;;;1999.90;999.90;;;;;;;6.91;35.30;164239.91;4989968;28;20054;-68
2022/03/19 09:17:26;;;;;;;1999.90;999.90;;;;;;;5.95;34.83;163983.00;4988728;28;20062;-67
2022/03/19 09:19:53;;;;;;;1999.90;999.90;;;;;;;7.04;35.54;164275.63;4989810;28;20510;-68
2022/03/19 09:22:19;;;;;;;1999.90;999.90;;;;;;;7.70;34.37;164451.53;4988155;28;20090;-68
2022/03/19 09:24:45;;;;;;;1999.90;999.90;;;;;;;7.46;34.59;164386.94;4989362;28;20058;-66
2022/03/19 09:27:12;;;;;;;1999.90;999.90;;;;;;;7.24;35.00;164327.84;4982886;28;20046;-67
2022/03/19 09:29:38;;;;;;;1999.90;999.90;;;;;;;7.76;33.10;164466.66;4990210;28;20403;-66
2022/03/19 09:32:05;;;;;;;1999.90;999.90;;;;;;;7.05;33.58;164276.97;5003976;28;20139;-68
2022/03/19 09:34:32;;;;;;;1999.90;999.90;;;;;;;7.07;29.60;164282.47;4981279;28;20051;-66
2022/03/19 09:36:58;;;;;;;1999.90;999.90;;;;;;;6.84;30.87;164220.66;4983090;28;20113;-66
2022/03/19 09:39:25;;;;;;;1999.90;999.90;;;;;;;7.31;30.97;164345.69;4983657;28;20046;-66
2022/03/19 09:41:53;;;;;;;1999.90;999.90;;;;;;;6.99;30.53;164261.88;4978891;28;20054;-66
2022/03/19 09:44:24;;;;;;;1999.90;999.90;;;;;;;6.50;29.81;164130.00;4987328;28;20411;-67
2022/03/19 09:46:51;;;;;;;1999.90;999.90;;;;;;;7.40;31.03;164370.44;4987435;28;20054;-67
2022/03/19 09:49:19;;;;;;;1999.90;999.90;;;;;;;8.29;29.94;164608.25;4984539;28;20082;-67
2022/03/19 09:51:55;;;;;;;1999.90;999.90;;;;;;;7.81;28.61;164480.38;4988107;28;20335;-66
2022/03/19 09:54:24;;;;;;;1999.90;999.90;;;;;;;8.14;30.27;164568.38;4980076;28;20292;-66
2022/03/19 09:56:51;;;;;;;1999.90;999.90;;;;;;;7.94;28.28;164514.75;4986325;28;20132;-66
2022/03/19 09:59:22;;;;;;;1999.90;999.90;;;;;;;8.12;28.67;164562.88;4995573;28;20101;-66
2022/03/19 10:01:49;;;;;;;1999.90;999.90;;;;;;;7.54;28.86;164407.53;4987595;28;20149;-66
2022/03/19 10:04:18;;;;;;;1999.90;999.90;;;;;;;7.67;27.91;164443.28;4988422;28;20526;-66
2022/03/19 10:09:52;;;;;;;1999.90;999.90;;;;;;;7.56;28.29;164413.03;4985359;28;20145;-66
2022/03/19 10:12:21;;;;;;;1999.90;999.90;;;;;;;8.39;28.46;164635.75;4981440;28;20678;-67
2022/03/19 10:14:53;;;;;;;1999.90;999.90;;;;;;;8.15;27.39;164571.13;4977425;28;20063;-67
2022/03/19 10:17:34;;;;;;;1999.90;999.90;;;;;;;8.20;27.54;164583.50;4985567;28;20057;-67
2022/03/19 10:20:11;;;;;;;1999.90;999.90;;;;;;;7.74;27.31;164461.13;4983636;28;20043;-68
2022/03/19 10:22:43;;;;;;;1999.90;999.90;;;;;;;8.61;27.71;164694.94;4985509;28;20050;-67
2022/03/19 10:25:12;;;;;;;1999.90;999.90;;;;;;;8.88;26.82;164765.13;4980042;28;20155;-68
2022/03/19 10:27:42;;;;;;;1999.90;999.90;;;;;;;8.04;26.01;164540.84;4986798;28;20108;-68
2022/03/19 10:30:19;;;;;;;1999.90;999.90;;;;;;;8.80;26.79;164745.84;4985895;28;20050;-68
2022/03/19 10:32:51;;;;;;;1999.90;999.90;;;;;;;9.46;26.05;164920.59;4977564;28;20335;-65
2022/03/19 10:35:31;;;;;;;1999.90;999.90;;;;;;;9.19;25.68;164849.03;4985221;28;20411;-65
2022/03/19 10:38:05;;;;;;;1999.90;999.90;;;;;;;9.10;24.25;164825.63;4973973;28;20055;-65
2022/03/19 10:40:41;;;;;;;1999.90;999.90;;;;;;;9.99;24.91;165062.38;4985883;28;20424;-66
2022/03/19 10:43:10;;;;;;;1999.90;999.90;;;;;;;9.55;24.38;164945.34;4984429;28;20419;-66
2022/03/19 10:45:48;;;;;;;1999.90;999.90;;;;;;;9.21;24.19;164853.16;4976653;28;20546;-66
2022/03/19 10:48:19;;;;;;;1999.90;999.90;;;;;;;9.51;23.27;164935.75;4987544;28;20328;-66
2022/03/19 10:50:45;;;;;;;1999.90;999.90;;;;;;;9.50;23.52;164931.63;4977790;28;20101;-66
2022/03/19 10:53:13;;;;;;;1999.90;999.90;;;;;;;10.01;23.88;165067.88;4983629;28;20054;-66
2022/03/19 10:55:40;;;;;;;1999.90;999.90;;;;;;;9.18;22.24;164844.91;4983312;28;20090;-66
2022/03/19 10:58:08;;;;;;;1999.90;999.90;;;;;;;8.87;22.52;164762.34;4986011;28;20125;-66
2022/03/19 11:00:56;;;;;;;1999.90;999.90;;;;;;;9.07;22.44;164817.38;4973989;28;20050;-66
2022/03/19 11:03:29;;;;;;;1999.90;999.90;;;;;;;9.33;23.80;164887.59;4982432;28;20647;-67
2022/03/19 11:06:02;;;;;;;1999.90;999.90;;;;;;;8.70;23.20;164716.97;4979235;28;20142;-66
2022/03/19 11:08:30;;;;;;;1999.90;999.90;;;;;;;9.32;22.16;164883.44;4982815;28;20086;-66
2022/03/19 11:10:58;;;;;;;1999.90;999.90;;;;;;;9.03;23.42;164806.38;4987723;28;20282;-66